KLHX

La Junta Municipal Airport

La Junta, Colorado, USA
METAR KLHX 230253Z AUTO 17013G22KT 10SM CLR 24/07 A2991 RMK AO2 LTG DSNT N SLP067 T02390067 53024
Observed Flight Rules
May-23 @ 02:53 UTC (23 minutes ago) Visual Flight Rules
Wind Visibility Clouds
170° at 13 knots
 Gusting to 22 knots
10 miles
  • Clear skies
Temperatures Readings
Current 24°C / 75°F
Dewpoint 7°C / 45°F
Humidity 34%
Altimeter 29.91" Hg
Pressure 1006.7 hPa
Elevation 1277
METAR KLHX 230253Z AUTO 17013G22KT 10SM CLR 24/07 A2991 RMK AO2 LTG DSNT N SLP067 T02390067 53024
Observed Flight Rules
May-23 @ 02:53 UTC
(23 minutes ago)
VFR
Wind Visibility
170° at 13 knots
 Gusting to 22 knots
10 miles
Clouds
  • Clear skies
Temperature Dewpoint
24°C / 75°F 7°C / 45°F
Humidity Altimeter Pressure
34% 29.91" Hg 1006.7 hPa